sensor_id;sensor_type;location;lat;lon;timestamp;pressure;altitude;pressure_sealevel;temperature;humidity
17635;BME280;8936;49.010;12.120;2023-05-27T00:02:10;98640.97;;;21.16;49.09
17635;BME280;8936;49.010;12.120;2023-05-27T00:04:36;98641.44;;;20.87;48.74
17635;BME280;8936;49.010;12.120;2023-05-27T00:07:03;98640.56;;;21.00;49.25
17635;BME280;8936;49.010;12.120;2023-05-27T00:09:30;98645.66;;;21.01;49.09
17635;BME280;8936;49.010;12.120;2023-05-27T00:11:57;98639.88;;;21.17;49.05
17635;BME280;8936;49.010;12.120;2023-05-27T00:14:23;98633.31;;;21.26;48.70
17635;BME280;8936;49.010;12.120;2023-05-27T00:16:49;98633.03;;;21.28;49.08
17635;BME280;8936;49.010;12.120;2023-05-27T00:19:16;98634.03;;;21.49;48.46
17635;BME280;8936;49.010;12.120;2023-05-27T00:21:43;98629.56;;;21.44;48.61
17635;BME280;8936;49.010;12.120;2023-05-27T00:24:09;98634.78;;;21.01;49.03
17635;BME280;8936;49.010;12.120;2023-05-27T00:26:37;98631.13;;;20.67;49.59
17635;BME280;8936;49.010;12.120;2023-05-27T00:29:04;98632.03;;;20.93;49.59
17635;BME280;8936;49.010;12.120;2023-05-27T00:31:30;98635.44;;;20.68;49.60
17635;BME280;8936;49.010;12.120;2023-05-27T00:33:57;98638.25;;;20.54;49.91
17635;BME280;8936;49.010;12.120;2023-05-27T00:36:23;98639.88;;;20.33;50.02
17635;BME280;8936;49.010;12.120;2023-05-27T00:38:49;98637.28;;;20.14;50.83
17635;BME280;8936;49.010;12.120;2023-05-27T00:41:16;98635.19;;;20.56;50.28
17635;BME280;8936;49.010;12.120;2023-05-27T00:43:43;98633.78;;;20.14;49.67
17635;BME280;8936;49.010;12.120;2023-05-27T00:46:10;98639.31;;;19.73;50.10
17635;BME280;8936;49.010;12.120;2023-05-27T00:48:36;98629.50;;;19.50;50.79
17635;BME280;8936;49.010;12.120;2023-05-27T00:51:03;98626.72;;;19.55;51.09
17635;BME280;8936;49.010;12.120;2023-05-27T00:53:30;98622.28;;;19.59;51.32
17635;BME280;8936;49.010;12.120;2023-05-27T00:56:00;98621.53;;;20.03;51.08
17635;BME280;8936;49.010;12.120;2023-05-27T00:58:27;98617.22;;;20.37;50.65
17635;BME280;8936;49.010;12.120;2023-05-27T01:00:55;98615.13;;;20.34;49.86
17635;BME280;8936;49.010;12.120;2023-05-27T01:03:22;98620.06;;;20.32;50.37
17635;BME280;8936;49.010;12.120;2023-05-27T01:05:49;98610.72;;;20.47;49.74
17635;BME280;8936;49.010;12.120;2023-05-27T01:08:21;98616.63;;;20.71;49.57
17635;BME280;8936;49.010;12.120;2023-05-27T01:10:50;98617.13;;;20.73;49.73
17635;BME280;8936;49.010;12.120;2023-05-27T01:13:19;98617.97;;;21.13;48.90
17635;BME280;8936;49.010;12.120;2023-05-27T01:15:52;98614.66;;;21.33;48.32
17635;BME280;8936;49.010;12.120;2023-05-27T01:18:21;98611.66;;;21.43;47.96
17635;BME280;8936;49.010;12.120;2023-05-27T01:20:49;98615.00;;;21.49;47.93
17635;BME280;8936;49.010;12.120;2023-05-27T01:23:18;98610.38;;;21.49;47.96
17635;BME280;8936;49.010;12.120;2023-05-27T01:25:44;98608.94;;;21.52;47.87
17635;BME280;8936;49.010;12.120;2023-05-27T01:28:11;98619.81;;;21.52;47.69
17635;BME280;8936;49.010;12.120;2023-05-27T01:30:37;98606.56;;;21.50;47.72
17635;BME280;8936;49.010;12.120;2023-05-27T01:33:05;98606.50;;;21.42;48.07
17635;BME280;8936;49.010;12.120;2023-05-27T01:35:35;98612.31;;;20.70;48.04
17635;BME280;8936;49.010;12.120;2023-05-27T01:38:07;98605.56;;;20.68;48.67
17635;BME280;8936;49.010;12.120;2023-05-27T01:40:36;98608.09;;;20.33;49.70
17635;BME280;8936;49.010;12.120;2023-05-27T01:43:04;98609.13;;;20.46;48.89
17635;BME280;8936;49.010;12.120;2023-05-27T01:45:31;98610.22;;;20.23;50.05
17635;BME280;8936;49.010;12.120;2023-05-27T01:47:58;98605.34;;;19.89;50.18
17635;BME280;8936;49.010;12.120;2023-05-27T01:50:25;98605.53;;;19.57;50.39
17635;BME280;8936;49.010;12.120;2023-05-27T01:52:51;98602.50;;;19.94;50.61
17635;BME280;8936;49.010;12.120;2023-05-27T01:55:17;98604.63;;;20.19;50.61
17635;BME280;8936;49.010;12.120;2023-05-27T01:57:46;98603.44;;;19.89;50.21
17635;BME280;8936;49.010;12.120;2023-05-27T02:00:12;98601.09;;;19.61;50.22
17635;BME280;8936;49.010;12.120;2023-05-27T02:02:40;98603.22;;;18.82;51.19
17635;BME280;8936;49.010;12.120;2023-05-27T02:05:07;98598.81;;;19.13;51.98
17635;BME280;8936;49.010;12.120;2023-05-27T02:07:33;98593.81;;;18.93;51.97
17635;BME280;8936;49.010;12.120;2023-05-27T02:10:00;98597.28;;;18.53;52.64
17635;BME280;8936;49.010;12.120;2023-05-27T02:12:26;98595.63;;;18.38;53.22
17635;BME280;8936;49.010;12.120;2023-05-27T02:14:54;98592.81;;;18.89;53.50
17635;BME280;8936;49.010;12.120;2023-05-27T02:17:20;98588.22;;;19.03;53.50
17635;BME280;8936;49.010;12.120;2023-05-27T02:19:49;98588.72;;;19.05;52.54
17635;BME280;8936;49.010;12.120;2023-05-27T02:22:15;98589.50;;;19.06;52.79
17635;BME280;8936;49.010;12.120;2023-05-27T02:24:42;98581.47;;;19.14;52.83
17635;BME280;8936;49.010;12.120;2023-05-27T02:27:08;98590.59;;;18.91;52.67
17635;BME280;8936;49.010;12.120;2023-05-27T02:29:35;98594.38;;;18.49;52.89
17635;BME280;8936;49.010;12.120;2023-05-27T02:32:03;98589.00;;;18.90;53.17
17635;BME280;8936;49.010;12.120;2023-05-27T02:34:30;98582.53;;;19.68;51.74
17635;BME280;8936;49.010;12.120;2023-05-27T02:36:57;98584.16;;;19.55;51.84
17635;BME280;8936;49.010;12.120;2023-05-27T02:39:23;98584.66;;;19.57;51.90
17635;BME280;8936;49.010;12.120;2023-05-27T02:41:50;98586.22;;;19.09;52.00
17635;BME280;8936;49.010;12.120;2023-05-27T02:44:16;98587.41;;;19.03;52.49
17635;BME280;8936;49.010;12.120;2023-05-27T02:46:42;98580.28;;;18.79;52.96
17635;BME280;8936;49.010;12.120;2023-05-27T02:49:10;98585.41;;;18.81;52.75
17635;BME280;8936;49.010;12.120;2023-05-27T02:51:36;98581.09;;;18.94;52.98
17635;BME280;8936;49.010;12.120;2023-05-27T02:54:03;98591.00;;;18.71;53.11
17635;BME280;8936;49.010;12.120;2023-05-27T02:56:29;98579.09;;;18.72;53.24
17635;BME280;8936;49.010;12.120;2023-05-27T02:58:55;98582.19;;;19.06;52.93
17635;BME280;8936;49.010;12.120;2023-05-27T03:01:22;98580.56;;;18.92;52.00
17635;BME280;8936;49.010;12.120;2023-05-27T03:03:48;98582.94;;;18.20;53.35
17635;BME280;8936;49.010;12.120;2023-05-27T03:06:16;98582.78;;;17.98;54.19
17635;BME280;8936;49.010;12.120;2023-05-27T03:08:43;98575.56;;;18.71;53.76
17635;BME280;8936;49.010;12.120;2023-05-27T03:11:09;98578.69;;;18.92;53.27
17635;BME280;8936;49.010;12.120;2023-05-27T03:13:36;98574.75;;;18.71;52.97
17635;BME280;8936;49.010;12.120;2023-05-27T03:16:02;98574.97;;;19.15;52.85
17635;BME280;8936;49.010;12.120;2023-05-27T03:18:29;98576.97;;;19.23;51.98
17635;BME280;8936;49.010;12.120;2023-05-27T03:20:55;98579.56;;;19.56;51.85
17635;BME280;8936;49.010;12.120;2023-05-27T03:23:23;98576.50;;;19.71;51.84
17635;BME280;8936;49.010;12.120;2023-05-27T03:25:49;98582.63;;;19.63;51.53
17635;BME280;8936;49.010;12.120;2023-05-27T03:28:16;98581.66;;;19.81;50.99
17635;BME280;8936;49.010;12.120;2023-05-27T03:30:42;98588.06;;;19.35;51.27
17635;BME280;8936;49.010;12.120;2023-05-27T03:33:09;98584.91;;;19.06;52.09
17635;BME280;8936;49.010;12.120;2023-05-27T03:35:35;98585.00;;;18.42;52.35
17635;BME280;8936;49.010;12.120;2023-05-27T03:38:03;98583.56;;;18.30;53.49
17635;BME280;8936;49.010;12.120;2023-05-27T03:40:31;98588.81;;;18.08;54.14
17635;BME280;8936;49.010;12.120;2023-05-27T03:42:57;98582.13;;;17.87;54.41
17635;BME280;8936;49.010;12.120;2023-05-27T03:45:24;98582.59;;;18.08;54.42
17635;BME280;8936;49.010;12.120;2023-05-27T03:47:50;98578.00;;;18.08;54.73
17635;BME280;8936;49.010;12.120;2023-05-27T03:50:17;98580.78;;;18.03;54.24
17635;BME280;8936;49.010;12.120;2023-05-27T03:52:43;98580.63;;;18.13;54.05
17635;BME280;8936;49.010;12.120;2023-05-27T03:55:09;98579.97;;;18.95;53.54
17635;BME280;8936;49.010;12.120;2023-05-27T03:57:38;98581.88;;;19.21;52.41
17635;BME280;8936;49.010;12.120;2023-05-27T04:00:05;98577.97;;;18.73;52.75
17635;BME280;8936;49.010;12.120;2023-05-27T04:02:33;98579.97;;;18.95;53.02
17635;BME280;8936;49.010;12.120;2023-05-27T04:04:59;98587.41;;;19.03;52.24
17635;BME280;8936;49.010;12.120;2023-05-27T04:07:27;98580.78;;;18.68;53.23
17635;BME280;8936;49.010;12.120;2023-05-27T04:09:54;98586.22;;;18.81;53.13
17635;BME280;8936;49.010;12.120;2023-05-27T04:12:20;98587.56;;;18.52;52.93
17635;BME280;8936;49.010;12.120;2023-05-27T04:14:48;98598.31;;;17.87;53.29
17635;BME280;8936;49.010;12.120;2023-05-27T04:17:14;98594.31;;;17.85;53.97
17635;BME280;8936;49.010;12.120;2023-05-27T04:19:40;98596.53;;;17.64;54.42
17635;BME280;8936;49.010;12.120;2023-05-27T04:22:07;98601.19;;;17.77;54.88
17635;BME280;8936;49.010;12.120;2023-05-27T04:24:33;98585.19;;;18.45;54.56
17635;BME280;8936;49.010;12.120;2023-05-27T04:26:59;98589.28;;;18.61;53.44
17635;BME280;8936;49.010;12.120;2023-05-27T04:29:27;98594.78;;;18.70;53.25
17635;BME280;8936;49.010;12.120;2023-05-27T04:31:58;98584.97;;;18.74;53.12
17635;BME280;8936;49.010;12.120;2023-05-27T04:34:25;98597.00;;;18.35;52.97
17635;BME280;8936;49.010;12.120;2023-05-27T04:36:52;98601.94;;;18.66;53.24
17635;BME280;8936;49.010;12.120;2023-05-27T04:39:18;98615.09;;;18.21;53.22
17635;BME280;8936;49.010;12.120;2023-05-27T04:41:44;98607.75;;;17.71;54.02
17635;BME280;8936;49.010;12.120;2023-05-27T04:44:11;98610.97;;;17.73;54.31
17635;BME280;8936;49.010;12.120;2023-05-27T04:46:38;98608.19;;;17.97;54.68
17635;BME280;8936;49.010;12.120;2023-05-27T04:49:07;98597.38;;;17.78;54.44
17635;BME280;8936;49.010;12.120;2023-05-27T04:51:34;98599.47;;;17.01;54.62
17635;BME280;8936;49.010;12.120;2023-05-27T04:54:02;98607.69;;;17.76;55.29
17635;BME280;8936;49.010;12.120;2023-05-27T04:56:30;98600.19;;;17.49;55.37
17635;BME280;8936;49.010;12.120;2023-05-27T04:58:57;98598.78;;;17.33;55.42
17635;BME280;8936;49.010;12.120;2023-05-27T05:01:24;98601.25;;;17.72;54.96
17635;BME280;8936;49.010;12.120;2023-05-27T05:03:52;98608.69;;;17.80;55.13
17635;BME280;8936;49.010;12.120;2023-05-27T05:06:37;98605.94;;;17.85;54.37
17635;BME280;8936;49.010;12.120;2023-05-27T05:09:03;98596.31;;;17.79;53.91
17635;BME280;8936;49.010;12.120;2023-05-27T05:11:30;98600.94;;;17.12;55.11
17635;BME280;8936;49.010;12.120;2023-05-27T05:13:57;98598.69;;;16.72;56.45
17635;BME280;8936;49.010;12.120;2023-05-27T05:16:23;98601.44;;;16.67;57.65
17635;BME280;8936;49.010;12.120;2023-05-27T05:18:50;98596.38;;;16.60;57.34
17635;BME280;8936;49.010;12.120;2023-05-27T05:21:16;98601.03;;;17.87;55.86
17635;BME280;8936;49.010;12.120;2023-05-27T05:23:44;98604.69;;;17.59;55.45
17635;BME280;8936;49.010;12.120;2023-05-27T05:26:10;98605.34;;;17.46;55.56
17635;BME280;8936;49.010;12.120;2023-05-27T05:28:36;98608.00;;;18.58;54.20
17635;BME280;8936;49.010;12.120;2023-05-27T05:31:03;98595.31;;;18.85;53.43
17635;BME280;8936;49.010;12.120;2023-05-27T05:33:29;98611.00;;;18.05;53.97
17635;BME280;8936;49.010;12.120;2023-05-27T05:35:56;98606.81;;;18.50;53.67
17635;BME280;8936;49.010;12.120;2023-05-27T05:38:22;98610.72;;;18.39;53.62
17635;BME280;8936;49.010;12.120;2023-05-27T05:40:50;98610.72;;;18.25;54.13
17635;BME280;8936;49.010;12.120;2023-05-27T05:43:17;98611.13;;;18.78;53.67
17635;BME280;8936;49.010;12.120;2023-05-27T05:45:44;98608.47;;;19.06;52.90
17635;BME280;8936;49.010;12.120;2023-05-27T05:48:10;98611.56;;;18.99;52.60
17635;BME280;8936;49.010;12.120;2023-05-27T05:50:37;98608.38;;;18.51;52.74
17635;BME280;8936;49.010;12.120;2023-05-27T05:53:03;98608.88;;;18.99;53.02
17635;BME280;8936;49.010;12.120;2023-05-27T05:55:29;98610.66;;;19.31;52.42
17635;BME280;8936;49.010;12.120;2023-05-27T05:57:57;98611.44;;;19.31;52.27
17635;BME280;8936;49.010;12.120;2023-05-27T06:00:24;98604.31;;;19.35;51.87
17635;BME280;8936;49.010;12.120;2023-05-27T06:02:52;98605.25;;;19.45;51.91
17635;BME280;8936;49.010;12.120;2023-05-27T06:05:18;98611.53;;;19.67;51.52
17635;BME280;8936;49.010;12.120;2023-05-27T06:07:46;98610.66;;;19.45;51.59
17635;BME280;8936;49.010;12.120;2023-05-27T06:10:12;98610.41;;;19.68;51.81
17635;BME280;8936;49.010;12.120;2023-05-27T06:12:38;98612.09;;;20.14;51.03
17635;BME280;8936;49.010;12.120;2023-05-27T06:15:07;98611.28;;;20.13;50.87
17635;BME280;8936;49.010;12.120;2023-05-27T06:17:33;98624.69;;;20.18;50.78
17635;BME280;8936;49.010;12.120;2023-05-27T06:20:00;98610.88;;;19.84;50.45
17635;BME280;8936;49.010;12.120;2023-05-27T06:22:27;98609.38;;;19.78;50.90
17635;BME280;8936;49.010;12.120;2023-05-27T06:24:53;98613.50;;;19.75;50.93
17635;BME280;8936;49.010;12.120;2023-05-27T06:27:19;98618.66;;;19.50;51.02
17635;BME280;8936;49.010;12.120;2023-05-27T06:29:46;98614.47;;;19.57;51.39
17635;BME280;8936;49.010;12.120;2023-05-27T06:32:13;98617.16;;;19.57;51.59
17635;BME280;8936;49.010;12.120;2023-05-27T06:34:40;98615.97;;;19.99;51.55
17635;BME280;8936;49.010;12.120;2023-05-27T06:37:06;98620.50;;;20.48;50.52
17635;BME280;8936;49.010;12.120;2023-05-27T06:39:33;98622.75;;;20.55;50.49
17635;BME280;8936;49.010;12.120;2023-05-27T06:41:59;98620.00;;;20.77;50.04
17635;BME280;8936;49.010;12.120;2023-05-27T06:44:26;98607.63;;;21.01;49.95
17635;BME280;8936;49.010;12.120;2023-05-27T06:46:53;98615.63;;;20.98;49.95
17635;BME280;8936;49.010;12.120;2023-05-27T06:49:20;98614.25;;;21.09;49.90
17635;BME280;8936;49.010;12.120;2023-05-27T06:51:47;98609.63;;;20.48;50.00
17635;BME280;8936;49.010;12.120;2023-05-27T06:54:13;98617.47;;;20.27;50.70
17635;BME280;8936;49.010;12.120;2023-05-27T06:56:40;98610.19;;;20.36;50.71
17635;BME280;8936;49.010;12.120;2023-05-27T06:59:06;98609.91;;;20.24;50.73
17635;BME280;8936;49.010;12.120;2023-05-27T07:01:32;98616.31;;;20.06;51.03
17635;BME280;8936;49.010;12.120;2023-05-27T07:03:59;98613.94;;;20.05;50.78
17635;BME280;8936;49.010;12.120;2023-05-27T07:06:27;98613.63;;;20.51;51.31
17635;BME280;8936;49.010;12.120;2023-05-27T07:08:53;98607.81;;;20.66;50.91
17635;BME280;8936;49.010;12.120;2023-05-27T07:11:20;98610.19;;;20.36;50.82
17635;BME280;8936;49.010;12.120;2023-05-27T07:13:46;98610.91;;;20.81;51.09
17635;BME280;8936;49.010;12.120;2023-05-27T07:16:13;98602.34;;;20.96;50.46
17635;BME280;8936;49.010;12.120;2023-05-27T07:18:39;98612.34;;;20.79;50.63
17635;BME280;8936;49.010;12.120;2023-05-27T07:21:06;98617.06;;;20.65;50.63
17635;BME280;8936;49.010;12.120;2023-05-27T07:23:33;98616.34;;;20.81;51.07
17635;BME280;8936;49.010;12.120;2023-05-27T07:26:00;98611.53;;;21.74;49.67
17635;BME280;8936;49.010;12.120;2023-05-27T07:28:26;98616.38;;;21.29;48.96
17635;BME280;8936;49.010;12.120;2023-05-27T07:30:53;98613.81;;;20.85;49.85
17635;BME280;8936;49.010;12.120;2023-05-27T07:33:19;98606.59;;;20.80;50.51
17635;BME280;8936;49.010;12.120;2023-05-27T07:35:45;98615.28;;;20.60;51.03
17635;BME280;8936;49.010;12.120;2023-05-27T07:38:12;98611.19;;;20.71;50.75
17635;BME280;8936;49.010;12.120;2023-05-27T07:40:40;98605.88;;;20.35;51.08
17635;BME280;8936;49.010;12.120;2023-05-27T07:43:06;98604.25;;;20.57;51.52
17635;BME280;8936;49.010;12.120;2023-05-27T07:45:33;98598.16;;;21.21;50.33
17635;BME280;8936;49.010;12.120;2023-05-27T07:47:59;98603.59;;;20.82;50.83
17635;BME280;8936;49.010;12.120;2023-05-27T07:50:26;98604.84;;;21.89;50.15
17635;BME280;8936;49.010;12.120;2023-05-27T07:52:52;98606.44;;;21.98;49.82
17635;BME280;8936;49.010;12.120;2023-05-27T07:55:18;98600.63;;;21.48;49.46
17635;BME280;8936;49.010;12.120;2023-05-27T07:57:46;98593.44;;;21.52;49.86
17635;BME280;8936;49.010;12.120;2023-05-27T08:00:13;98598.13;;;21.95;49.94
17635;BME280;8936;49.010;12.120;2023-05-27T08:02:39;98586.72;;;22.44;48.01
17635;BME280;8936;49.010;12.120;2023-05-27T08:05:07;98597.13;;;21.74;47.49
17635;BME280;8936;49.010;12.120;2023-05-27T08:07:33;98588.34;;;21.85;48.55
17635;BME280;8936;49.010;12.120;2023-05-27T08:10:00;98589.50;;;22.01;46.70
17635;BME280;8936;49.010;12.120;2023-05-27T08:12:27;98587.72;;;22.14;47.32
17635;BME280;8936;49.010;12.120;2023-05-27T08:14:54;98595.06;;;21.71;47.15
17635;BME280;8936;49.010;12.120;2023-05-27T08:17:21;98578.50;;;21.24;47.85
17635;BME280;8936;49.010;12.120;2023-05-27T08:19:47;98592.66;;;21.86;48.71
17635;BME280;8936;49.010;12.120;2023-05-27T08:22:13;98570.47;;;21.93;48.42
17635;BME280;8936;49.010;12.120;2023-05-27T08:24:40;98579.72;;;21.92;48.52
17635;BME280;8936;49.010;12.120;2023-05-27T08:27:13;98580.69;;;21.87;48.11
17635;BME280;8936;49.010;12.120;2023-05-27T08:29:40;98571.59;;;22.73;47.91
17635;BME280;8936;49.010;12.120;2023-05-27T08:32:08;98576.81;;;22.40;47.50
17635;BME280;8936;49.010;12.120;2023-05-27T08:34:34;98577.75;;;22.35;47.97
17635;BME280;8936;49.010;12.120;2023-05-27T08:37:01;98579.72;;;21.75;48.42
17635;BME280;8936;49.010;12.120;2023-05-27T08:39:28;98571.56;;;21.75;48.59
17635;BME280;8936;49.010;12.120;2023-05-27T08:41:55;98560.91;;;23.05;48.05
17635;BME280;8936;49.010;12.120;2023-05-27T08:44:22;98567.88;;;23.15;46.98
17635;BME280;8936;49.010;12.120;2023-05-27T08:46:49;98568.16;;;23.22;47.44
17635;BME280;8936;49.010;12.120;2023-05-27T08:49:17;98563.72;;;23.47;46.52
17635;BME280;8936;49.010;12.120;2023-05-27T08:51:44;98565.28;;;23.19;45.82
17635;BME280;8936;49.010;12.120;2023-05-27T08:54:11;98565.19;;;22.69;46.89
17635;BME280;8936;49.010;12.120;2023-05-27T08:56:37;98557.59;;;22.91;47.22
17635;BME280;8936;49.010;12.120;2023-05-27T08:59:05;98562.63;;;22.64;46.32
17635;BME280;8936;49.010;12.120;2023-05-27T09:01:32;98555.91;;;21.89;47.88
17635;BME280;8936;49.010;12.120;2023-05-27T09:03:59;98566.59;;;22.11;48.46
17635;BME280;8936;49.010;12.120;2023-05-27T09:06:27;98548.56;;;23.29;47.14
17635;BME280;8936;49.010;12.120;2023-05-27T09:08:53;98557.41;;;22.41;47.43
17635;BME280;8936;49.010;12.120;2023-05-27T09:11:21;98552.94;;;22.45;47.85
17635;BME280;8936;49.010;12.120;2023-05-27T09:13:47;98547.94;;;22.47;48.37
17635;BME280;8936;49.010;12.120;2023-05-27T09:16:14;98541.06;;;23.55;47.21
17635;BME280;8936;49.010;12.120;2023-05-27T09:18:41;98540.72;;;23.56;46.67
17635;BME280;8936;49.010;12.120;2023-05-27T09:21:07;98539.84;;;23.64;46.35
17635;BME280;8936;49.010;12.120;2023-05-27T09:23:37;98535.97;;;23.16;46.55
17635;BME280;8936;49.010;12.120;2023-05-27T09:26:06;98527.38;;;23.34;46.77
17635;BME280;8936;49.010;12.120;2023-05-27T09:28:35;98537.94;;;22.22;47.60
17635;BME280;8936;49.010;12.120;2023-05-27T09:31:02;98541.97;;;22.08;47.68
17635;BME280;8936;49.010;12.120;2023-05-27T09:33:30;98529.81;;;21.96;47.77
17635;BME280;8936;49.010;12.120;2023-05-27T09:35:57;98522.75;;;22.04;48.46
17635;BME280;8936;49.010;12.120;2023-05-27T09:38:23;98524.22;;;22.01;48.43
17635;BME280;8936;49.010;12.120;2023-05-27T09:40:51;98522.78;;;21.61;49.43
17635;BME280;8936;49.010;12.120;2023-05-27T09:43:18;98529.16;;;21.74;49.31
17635;BME280;8936;49.010;12.120;2023-05-27T09:45:44;98518.84;;;22.39;49.82
17635;BME280;8936;49.010;12.120;2023-05-27T09:48:11;98518.38;;;22.37;48.72
17635;BME280;8936;49.010;12.120;2023-05-27T09:50:38;98516.13;;;22.39;49.15
17635;BME280;8936;49.010;12.120;2023-05-27T09:53:06;98505.31;;;22.60;49.15
17635;BME280;8936;49.010;12.120;2023-05-27T09:55:33;98507.25;;;23.18;47.95
17635;BME280;8936;49.010;12.120;2023-05-27T09:58:00;98501.28;;;23.04;48.38
17635;BME280;8936;49.010;12.120;2023-05-27T10:00:28;98504.19;;;22.70;48.19
17635;BME280;8936;49.010;12.120;2023-05-27T10:02:54;98504.22;;;22.06;49.20
17635;BME280;8936;49.010;12.120;2023-05-27T10:05:22;98505.00;;;22.06;49.58
17635;BME280;8936;49.010;12.120;2023-05-27T10:07:48;98515.75;;;22.03;50.25
17635;BME280;8936;49.010;12.120;2023-05-27T10:10:16;98497.66;;;22.91;48.96
17635;BME280;8936;49.010;12.120;2023-05-27T10:12:43;98491.28;;;22.87;48.04
17635;BME280;8936;49.010;12.120;2023-05-27T10:15:21;98498.03;;;23.10;48.38
17635;BME280;8936;49.010;12.120;2023-05-27T10:17:49;98486.53;;;22.76;47.82
17635;BME280;8936;49.010;12.120;2023-05-27T10:20:23;98484.16;;;22.19;48.53
17635;BME280;8936;49.010;12.120;2023-05-27T10:22:49;98479.91;;;21.92;48.55
17635;BME280;8936;49.010;12.120;2023-05-27T10:25:16;98478.44;;;22.03;48.59
17635;BME280;8936;49.010;12.120;2023-05-27T10:27:45;98479.88;;;22.01;49.06
17635;BME280;8936;49.010;12.120;2023-05-27T10:30:12;98465.72;;;22.33;49.05
17635;BME280;8936;49.010;12.120;2023-05-27T10:35:26;98463.88;;;23.34;47.93
17635;BME280;8936;49.010;12.120;2023-05-27T10:37:53;98465.50;;;22.85;47.51
17635;BME280;8936;49.010;12.120;2023-05-27T10:40:23;98459.38;;;22.58;47.96
17635;BME280;8936;49.010;12.120;2023-05-27T10:42:57;98450.31;;;22.84;48.66
17635;BME280;8936;49.010;12.120;2023-05-27T10:45:30;98457.63;;;23.12;48.06
17635;BME280;8936;49.010;12.120;2023-05-27T10:47:57;98453.84;;;22.46;47.66
17635;BME280;8936;49.010;12.120;2023-05-27T10:50:23;98444.91;;;22.29;47.30
17635;BME280;8936;49.010;12.120;2023-05-27T10:52:57;98450.13;;;23.09;47.63
17635;BME280;8936;49.010;12.120;2023-05-27T10:55:25;98448.66;;;23.33;47.00
17635;BME280;8936;49.010;12.120;2023-05-27T10:58:06;98456.34;;;23.39;46.02
17635;BME280;8936;49.010;12.120;2023-05-27T11:00:33;98443.50;;;23.60;45.53
17635;BME280;8936;49.010;12.120;2023-05-27T11:02:59;98447.38;;;23.72;45.45
17635;BME280;8936;49.010;12.120;2023-05-27T11:05:27;98455.06;;;23.57;45.04
17635;BME280;8936;49.010;12.120;2023-05-27T11:07:54;98446.78;;;23.25;44.09
17635;BME280;8936;49.010;12.120;2023-05-27T11:10:22;98453.72;;;23.01;43.92
17635;BME280;8936;49.010;12.120;2023-05-27T11:12:48;98448.97;;;22.90;45.42
17635;BME280;8936;49.010;12.120;2023-05-27T11:15:14;98443.97;;;22.71;44.78
17635;BME280;8936;49.010;12.120;2023-05-27T11:17:41;98442.56;;;22.65;45.43
17635;BME280;8936;49.010;12.120;2023-05-27T11:20:07;98440.16;;;22.55;44.87
17635;BME280;8936;49.010;12.120;2023-05-27T11:22:34;98433.09;;;23.12;45.34
17635;BME280;8936;49.010;12.120;2023-05-27T11:25:02;98432.59;;;23.40;45.23
17635;BME280;8936;49.010;12.120;2023-05-27T11:27:36;98422.34;;;23.57;44.53
17635;BME280;8936;49.010;12.120;2023-05-27T11:30:06;98421.00;;;23.63;43.00
17635;BME280;8936;49.010;12.120;2023-05-27T11:32:34;98432.44;;;23.36;43.88
17635;BME280;8936;49.010;12.120;2023-05-27T11:35:01;98414.78;;;23.42;44.40
17635;BME280;8936;49.010;12.120;2023-05-27T11:37:30;98422.31;;;23.45;44.47
17635;BME280;8936;49.010;12.120;2023-05-27T11:39:57;98406.13;;;23.61;43.83
17635;BME280;8936;49.010;12.120;2023-05-27T11:42:23;98417.09;;;23.52;43.25
17635;BME280;8936;49.010;12.120;2023-05-27T11:44:51;98406.13;;;23.40;43.75
17635;BME280;8936;49.010;12.120;2023-05-27T11:47:18;98401.25;;;23.46;44.36
17635;BME280;8936;49.010;12.120;2023-05-27T11:49:45;98403.47;;;23.32;43.50
17635;BME280;8936;49.010;12.120;2023-05-27T11:52:12;98403.53;;;23.23;45.69
17635;BME280;8936;49.010;12.120;2023-05-27T11:54:38;98394.69;;;23.47;44.36
17635;BME280;8936;49.010;12.120;2023-05-27T11:57:05;98392.78;;;23.27;43.98
17635;BME280;8936;49.010;12.120;2023-05-27T11:59:35;98401.88;;;23.96;49.77
17635;BME280;8936;49.010;12.120;2023-05-27T12:02:03;98395.47;;;25.53;54.22
17635;BME280;8936;49.010;12.120;2023-05-27T12:04:30;98386.00;;;25.78;52.39
17635;BME280;8936;49.010;12.120;2023-05-27T12:06:56;98383.28;;;25.94;51.57
17635;BME280;8936;49.010;12.120;2023-05-27T12:09:23;98383.19;;;26.06;50.11
17635;BME280;8936;49.010;12.120;2023-05-27T12:11:49;98369.03;;;24.90;40.73
17635;BME280;8936;49.010;12.120;2023-05-27T12:14:16;98364.06;;;24.19;41.51
17635;BME280;8936;49.010;12.120;2023-05-27T12:16:42;98380.47;;;23.86;41.52
17635;BME280;8936;49.010;12.120;2023-05-27T12:19:10;98360.59;;;23.86;41.10
17635;BME280;8936;49.010;12.120;2023-05-27T12:21:36;98365.91;;;23.70;42.13
17635;BME280;8936;49.010;12.120;2023-05-27T12:24:03;98374.72;;;24.00;41.96
17635;BME280;8936;49.010;12.120;2023-05-27T12:26:30;98355.97;;;23.98;41.35
17635;BME280;8936;49.010;12.120;2023-05-27T12:28:56;98357.06;;;23.85;42.47
17635;BME280;8936;49.010;12.120;2023-05-27T12:31:23;98353.88;;;23.83;42.47
17635;BME280;8936;49.010;12.120;2023-05-27T12:33:50;98361.47;;;23.78;42.09
17635;BME280;8936;49.010;12.120;2023-05-27T12:36:18;98351.97;;;23.96;41.56
17635;BME280;8936;49.010;12.120;2023-05-27T12:38:44;98356.69;;;24.20;42.99
17635;BME280;8936;49.010;12.120;2023-05-27T12:41:11;98348.09;;;23.97;42.22
17635;BME280;8936;49.010;12.120;2023-05-27T12:43:37;98343.56;;;23.89;41.63
17635;BME280;8936;49.010;12.120;2023-05-27T12:46:03;98342.66;;;23.97;42.65
17635;BME280;8936;49.010;12.120;2023-05-27T12:48:30;98346.91;;;24.31;43.30
17635;BME280;8936;49.010;12.120;2023-05-27T12:50:57;98345.53;;;24.37;43.57
17635;BME280;8936;49.010;12.120;2023-05-27T12:53:24;98346.66;;;24.36;43.12
17635;BME280;8936;49.010;12.120;2023-05-27T12:55:51;98339.06;;;24.41;42.01
17635;BME280;8936;49.010;12.120;2023-05-27T12:58:17;98327.91;;;24.22;42.28
17635;BME280;8936;49.010;12.120;2023-05-27T13:00:44;98330.41;;;24.27;43.01
17635;BME280;8936;49.010;12.120;2023-05-27T13:03:10;98337.09;;;24.42;43.28